createdAt,value
2017-09-05T00:00:23.975Z,9.60
2017-09-05T00:02:56.192Z,10.80
2017-09-05T00:05:28.659Z,11.43
2017-09-05T00:08:01.717Z,7.40
2017-09-05T00:10:34.202Z,9.00
2017-09-05T00:16:11.213Z,7.47
2017-09-05T00:18:43.498Z,11.83
2017-09-05T00:21:17.912Z,9.30
2017-09-05T00:23:51.012Z,12.13
2017-09-05T00:26:23.622Z,9.40
2017-09-05T00:28:55.914Z,10.40
2017-09-05T00:31:28.126Z,13.40
2017-09-05T00:34:00.640Z,8.33
2017-09-05T00:36:33.172Z,8.90
2017-09-05T00:39:05.595Z,11.37
2017-09-05T00:41:37.986Z,10.23
2017-09-05T00:44:10.242Z,8.27
2017-09-05T00:46:42.703Z,9.60
2017-09-05T00:49:15.043Z,8.40
2017-09-05T00:51:47.511Z,9.73
2017-09-05T00:54:19.758Z,7.50
2017-09-05T00:56:52.074Z,10.67
2017-09-05T00:59:24.355Z,9.50
2017-09-05T01:01:56.742Z,8.03
2017-09-05T01:04:29.009Z,8.23
2017-09-05T01:07:01.357Z,8.53
2017-09-05T01:09:34.352Z,9.03
2017-09-05T01:12:07.472Z,8.87
2017-09-05T01:14:39.697Z,11.03
2017-09-05T01:17:12.161Z,12.10
2017-09-05T01:19:44.405Z,9.80
2017-09-05T01:22:16.781Z,11.97
2017-09-05T01:24:49.068Z,9.67
2017-09-05T01:27:21.401Z,10.30
2017-09-05T01:29:53.794Z,12.40
2017-09-05T01:32:26.916Z,15.00
2017-09-05T01:35:00.226Z,9.40
2017-09-05T01:37:32.812Z,13.63
2017-09-05T01:40:09.079Z,13.53
2017-09-05T01:42:41.412Z,10.83
2017-09-05T01:45:13.700Z,13.00
2017-09-05T01:47:46.465Z,10.30
2017-09-05T01:50:18.857Z,11.03
2017-09-05T01:52:51.417Z,16.40
2017-09-05T01:55:23.759Z,9.80
2017-09-05T01:57:57.407Z,13.30
2017-09-05T02:00:29.670Z,12.00
2017-09-05T02:03:02.243Z,12.83
2017-09-05T02:05:34.433Z,11.77
2017-09-05T02:08:06.872Z,10.43
2017-09-05T02:10:39.117Z,10.47
2017-09-05T02:13:11.823Z,13.77
2017-09-05T02:15:44.150Z,18.13
2017-09-05T02:18:16.798Z,14.00
2017-09-05T02:20:49.128Z,10.10
2017-09-05T02:23:21.634Z,10.90
2017-09-05T02:25:53.948Z,12.40
2017-09-05T02:28:26.209Z,13.47
2017-09-05T02:30:58.473Z,13.03
2017-09-05T02:33:31.003Z,12.57
2017-09-05T02:36:03.180Z,13.70
2017-09-05T02:38:35.657Z,11.77
2017-09-05T02:41:08.098Z,13.07
2017-09-05T02:43:40.717Z,14.07
2017-09-05T02:46:13.002Z,15.30
2017-09-05T02:48:45.361Z,10.20
2017-09-05T02:51:17.615Z,12.43
2017-09-05T02:53:49.948Z,12.37
2017-09-05T02:56:22.146Z,12.10
2017-09-05T02:58:54.545Z,13.80
2017-09-05T03:01:26.900Z,12.90
2017-09-05T03:03:59.328Z,13.93
2017-09-05T03:06:31.700Z,11.83
2017-09-05T03:09:03.969Z,10.53
2017-09-05T03:11:36.217Z,9.53
2017-09-05T03:14:08.490Z,11.73
2017-09-05T03:16:40.923Z,12.83
2017-09-05T03:19:13.383Z,11.23
2017-09-05T03:21:45.787Z,14.83
2017-09-05T03:24:18.189Z,10.27
2017-09-05T03:26:50.581Z,11.43
2017-09-05T03:29:22.770Z,11.90
2017-09-05T03:31:55.213Z,11.60
2017-09-05T03:34:27.488Z,11.67
2017-09-05T03:36:59.888Z,12.43
2017-09-05T03:39:32.149Z,11.47
2017-09-05T03:42:04.318Z,17.07
2017-09-05T03:44:36.741Z,12.10
2017-09-05T03:47:09.098Z,14.27
2017-09-05T03:49:41.570Z,12.80
2017-09-05T03:52:13.962Z,12.57
2017-09-05T03:54:46.293Z,12.23
2017-09-05T03:57:18.656Z,17.33
2017-09-05T03:59:51.079Z,14.40
2017-09-05T04:02:23.389Z,14.70
2017-09-05T04:04:55.804Z,15.37
2017-09-05T04:07:28.111Z,17.80
2017-09-05T04:10:00.666Z,16.23
2017-09-05T04:12:33.042Z,16.87
2017-09-05T04:15:05.514Z,17.00
2017-09-05T04:17:37.700Z,17.77
2017-09-05T04:20:09.961Z,17.00
2017-09-05T04:22:42.323Z,17.30
2017-09-05T04:25:14.478Z,16.90
2017-09-05T04:27:46.793Z,17.10
2017-09-05T04:30:19.573Z,16.60
2017-09-05T04:32:51.937Z,15.97
2017-09-05T04:35:24.308Z,17.40
2017-09-05T04:37:56.669Z,18.10
2017-09-05T04:40:29.258Z,15.13
2017-09-05T04:43:01.631Z,16.60
2017-09-05T04:45:33.778Z,18.07
2017-09-05T04:48:06.233Z,18.60
2017-09-05T04:50:38.612Z,18.87
2017-09-05T04:53:10.998Z,15.80
2017-09-05T04:55:43.764Z,14.17
2017-09-05T04:58:16.090Z,17.50
2017-09-05T05:00:48.693Z,18.07
2017-09-05T05:03:20.979Z,19.17
2017-09-05T05:05:53.405Z,19.50
2017-09-05T05:08:25.574Z,18.20
2017-09-05T05:10:57.984Z,16.57
2017-09-05T05:13:30.288Z,17.93
2017-09-05T05:16:02.865Z,17.23
2017-09-05T05:18:35.320Z,16.03
2017-09-05T05:21:07.505Z,16.00
2017-09-05T05:23:39.792Z,20.07
2017-09-05T05:26:12.189Z,18.00
2017-09-05T05:28:44.425Z,18.30
2017-09-05T05:31:16.772Z,17.87
2017-09-05T05:33:49.061Z,21.37
2017-09-05T05:36:21.798Z,17.17
2017-09-05T05:38:54.193Z,15.70
2017-09-05T05:41:26.407Z,15.30
2017-09-05T05:43:58.589Z,14.23
2017-09-05T05:46:30.917Z,16.10
2017-09-05T05:49:03.331Z,16.80
2017-09-05T05:51:35.510Z,19.53
2017-09-05T05:54:07.750Z,18.10
2017-09-05T05:56:39.967Z,15.97
2017-09-05T05:59:12.158Z,15.07
2017-09-05T06:01:44.546Z,16.40
2017-09-05T06:04:16.819Z,12.90
2017-09-05T06:06:49.059Z,20.70
2017-09-05T06:09:21.258Z,16.83
2017-09-05T06:11:53.866Z,13.90
2017-09-05T06:14:26.093Z,15.17
2017-09-05T06:16:58.336Z,15.90
2017-09-05T06:19:30.718Z,17.73
2017-09-05T06:22:03.149Z,11.70
2017-09-05T06:24:35.312Z,14.63
2017-09-05T06:27:07.619Z,12.33
2017-09-05T06:29:39.977Z,15.83
2017-09-05T06:32:12.290Z,13.13
2017-09-05T06:34:44.497Z,12.47
2017-09-05T06:37:16.906Z,13.30
2017-09-05T06:39:49.243Z,12.53
2017-09-05T06:42:21.556Z,14.40
2017-09-05T06:44:53.824Z,16.47
2017-09-05T06:47:25.991Z,20.07
2017-09-05T06:49:58.174Z,10.20
2017-09-05T06:52:30.523Z,17.20
2017-09-05T06:55:02.993Z,15.73
2017-09-05T06:57:35.249Z,12.10
2017-09-05T07:00:07.407Z,18.60
2017-09-05T07:02:39.956Z,9.10
2017-09-05T07:05:12.218Z,15.10
2017-09-05T07:07:44.558Z,9.82
2017-09-05T07:10:16.802Z,9.23
2017-09-05T07:12:42.994Z,8.37
2017-09-05T07:15:09.259Z,7.57
2017-09-05T07:17:35.435Z,6.27
2017-09-05T07:20:01.566Z,7.30
2017-09-05T07:22:27.922Z,10.10
2017-09-05T07:24:54.206Z,5.60
2017-09-05T07:27:27.418Z,7.13
2017-09-05T07:29:53.567Z,5.93
2017-09-05T07:32:19.836Z,5.83
2017-09-05T07:34:46.010Z,6.20
2017-09-05T07:37:12.258Z,6.40
2017-09-05T07:39:38.472Z,6.77
2017-09-05T07:42:04.630Z,11.57
2017-09-05T07:44:31.129Z,5.77
2017-09-05T07:46:57.474Z,5.23
2017-09-05T07:49:24.786Z,11.10
2017-09-05T07:51:51.267Z,9.63
2017-09-05T07:54:17.603Z,10.97
2017-09-05T07:56:43.836Z,15.93
2017-09-05T07:59:10.426Z,6.73
2017-09-05T08:01:36.564Z,22.20
2017-09-05T08:04:02.850Z,13.93
2017-09-05T08:06:29.457Z,19.60
2017-09-05T08:08:55.659Z,12.70
2017-09-05T08:11:21.911Z,8.83
2017-09-05T08:13:48.447Z,6.33
2017-09-05T08:16:14.657Z,9.60
2017-09-05T08:18:40.798Z,6.40
2017-09-05T08:21:07.228Z,13.40
2017-09-05T08:23:33.362Z,8.10
2017-09-05T08:25:59.562Z,5.87
2017-09-05T08:28:26.225Z,6.23
2017-09-05T08:30:52.521Z,5.83
2017-09-05T08:33:18.712Z,6.60
2017-09-05T08:35:44.897Z,12.20
2017-09-05T08:38:11.035Z,4.93
2017-09-05T08:40:37.241Z,4.80
2017-09-05T08:43:03.620Z,6.07
2017-09-05T08:45:29.810Z,7.33
2017-09-05T08:47:56.035Z,4.90
2017-09-05T08:50:22.304Z,4.97
2017-09-05T08:52:48.463Z,5.23
2017-09-05T08:55:14.612Z,5.50
2017-09-05T08:57:40.868Z,4.30
2017-09-05T09:00:07.132Z,9.50
2017-09-05T09:02:33.322Z,6.70
2017-09-05T09:04:59.486Z,6.73
2017-09-05T09:07:25.636Z,5.00
2017-09-05T09:09:51.776Z,5.97
2017-09-05T09:12:18.470Z,10.73
2017-09-05T09:14:44.626Z,4.90
2017-09-05T09:17:10.835Z,5.97
2017-09-05T09:19:37.116Z,5.90
2017-09-05T09:22:03.359Z,6.80
2017-09-05T09:24:29.595Z,15.00
2017-09-05T09:26:55.823Z,6.73
2017-09-05T09:29:21.988Z,6.70
2017-09-05T09:31:48.131Z,36.77
2017-09-05T09:34:14.332Z,10.27
2017-09-05T09:36:40.564Z,49.77
2017-09-05T09:39:06.704Z,17.40
2017-09-05T09:41:32.856Z,19.10
2017-09-05T09:43:59.083Z,11.70
2017-09-05T09:46:25.233Z,10.57
2017-09-05T09:48:51.460Z,13.20
2017-09-05T09:51:17.718Z,8.57
2017-09-05T09:53:43.905Z,11.43
2017-09-05T09:56:10.128Z,12.53
2017-09-05T09:58:36.362Z,8.97
2017-09-05T10:01:02.540Z,7.87
2017-09-05T10:03:28.672Z,12.00
2017-09-05T10:05:54.790Z,10.03
2017-09-05T10:08:20.961Z,8.60
2017-09-05T10:10:47.215Z,9.47
2017-09-05T10:13:13.420Z,10.00
2017-09-05T10:15:39.702Z,10.37
2017-09-05T10:18:05.891Z,8.40
2017-09-05T10:20:32.016Z,10.60
2017-09-05T10:22:58.197Z,8.70
2017-09-05T10:25:24.370Z,8.33
2017-09-05T10:27:50.546Z,8.40
2017-09-05T10:30:16.676Z,8.70
2017-09-05T10:32:42.838Z,9.13
2017-09-05T10:35:09.040Z,8.70
2017-09-05T10:37:35.193Z,10.93
2017-09-05T10:40:01.428Z,8.70
2017-09-05T10:42:27.557Z,8.40
2017-09-05T10:44:53.737Z,10.33
2017-09-05T10:47:19.975Z,9.60
2017-09-05T10:49:46.096Z,13.20
2017-09-05T10:52:12.678Z,8.73
2017-09-05T10:54:38.887Z,9.23
2017-09-05T10:57:05.181Z,8.93
2017-09-05T10:59:31.376Z,12.07
2017-09-05T11:01:57.895Z,9.30
2017-09-05T11:04:24.158Z,9.33
2017-09-05T11:06:50.599Z,8.53
2017-09-05T11:09:17.088Z,8.10
2017-09-05T11:11:44.325Z,9.47
2017-09-05T11:14:10.654Z,12.20
2017-09-05T11:16:36.986Z,8.40
2017-09-05T11:19:04.190Z,18.30
2017-09-05T11:21:30.353Z,7.80
2017-09-05T11:23:56.621Z,6.57
2017-09-05T11:26:22.847Z,7.57
2017-09-05T11:28:49.363Z,8.83
2017-09-05T11:31:15.578Z,9.87
2017-09-05T11:33:42.783Z,7.47
2017-09-05T11:36:09.000Z,7.23
2017-09-05T11:38:36.091Z,6.87
2017-09-05T11:41:02.308Z,7.50
2017-09-05T11:43:28.436Z,10.07
2017-09-05T11:45:54.724Z,8.90
2017-09-05T11:48:20.901Z,7.00
2017-09-05T11:50:47.027Z,6.87
2017-09-05T11:53:13.191Z,7.67
2017-09-05T11:55:39.417Z,7.10
2017-09-05T11:58:05.537Z,7.50
2017-09-05T12:00:31.682Z,6.60
2017-09-05T12:02:57.932Z,7.50
2017-09-05T12:05:24.089Z,7.10
2017-09-05T12:07:50.240Z,6.80
2017-09-05T12:10:16.450Z,15.60
2017-09-05T12:12:42.591Z,6.00
2017-09-05T12:15:08.801Z,6.63
2017-09-05T12:17:34.997Z,10.23
2017-09-05T12:20:01.159Z,9.70
2017-09-05T12:22:27.316Z,8.00
2017-09-05T12:24:53.522Z,6.30
2017-09-05T12:27:19.695Z,6.47
2017-09-05T12:29:45.951Z,7.70
2017-09-05T12:32:12.090Z,7.33
2017-09-05T12:34:38.310Z,6.57
2017-09-05T12:37:04.691Z,5.37
2017-09-05T12:39:31.038Z,6.93
2017-09-05T12:41:58.380Z,8.43
2017-09-05T12:44:24.896Z,8.10
2017-09-05T12:46:51.245Z,6.30
2017-09-05T12:49:17.530Z,6.43
2017-09-05T12:51:44.222Z,6.40
2017-09-05T12:54:10.712Z,6.13
2017-09-05T12:56:36.939Z,8.10
2017-09-05T12:59:03.301Z,6.27
2017-09-05T13:01:29.582Z,6.70
2017-09-05T13:03:55.831Z,5.90
2017-09-05T13:06:22.493Z,10.13
2017-09-05T13:08:48.906Z,5.63
2017-09-05T13:11:16.115Z,6.83
2017-09-05T13:13:43.684Z,7.60
2017-09-05T13:16:10.931Z,10.03
2017-09-05T13:18:37.526Z,6.43
2017-09-05T13:21:03.842Z,6.47
2017-09-05T13:23:30.027Z,7.00
2017-09-05T13:25:56.389Z,4.80
2017-09-05T13:28:23.065Z,5.87
2017-09-05T13:30:49.211Z,6.20
2017-09-05T13:33:16.593Z,6.73
2017-09-05T13:35:42.823Z,6.70
2017-09-05T13:38:09.087Z,8.40
2017-09-05T13:40:35.447Z,6.20
2017-09-05T13:43:01.607Z,6.87
2017-09-05T13:45:27.794Z,8.90
2017-09-05T13:47:54.036Z,6.53
2017-09-05T13:50:20.193Z,7.87
2017-09-05T13:52:46.424Z,7.70
2017-09-05T13:55:12.593Z,6.53
2017-09-05T13:57:38.781Z,6.63
2017-09-05T14:00:05.059Z,7.13
2017-09-05T14:02:31.268Z,17.50
2017-09-05T14:04:57.498Z,6.23
2017-09-05T14:07:23.718Z,7.17
2017-09-05T14:09:50.063Z,6.40
2017-09-05T14:12:16.292Z,8.03
2017-09-05T14:14:42.479Z,7.33
2017-09-05T14:17:08.690Z,5.50
2017-09-05T14:19:34.857Z,6.10
2017-09-05T14:22:01.097Z,6.17
2017-09-05T14:24:27.425Z,6.07
2017-09-05T14:26:53.564Z,5.63
2017-09-05T14:29:19.782Z,5.77
2017-09-05T14:31:46.172Z,4.97
2017-09-05T14:34:12.337Z,5.33
2017-09-05T14:36:38.576Z,5.70
2017-09-05T14:39:04.927Z,7.00
2017-09-05T14:41:31.106Z,5.53
2017-09-05T14:43:57.280Z,7.43
2017-09-05T14:46:23.503Z,7.00
2017-09-05T14:48:49.707Z,6.93
2017-09-05T14:51:16.028Z,6.13
2017-09-05T14:53:42.207Z,5.20
2017-09-05T14:56:08.378Z,5.57
2017-09-05T14:58:34.610Z,6.63
2017-09-05T15:01:00.910Z,8.30
2017-09-05T15:03:27.138Z,6.33
2017-09-05T15:05:53.407Z,5.47
2017-09-05T15:08:20.250Z,5.63
2017-09-05T15:10:46.588Z,8.63
2017-09-05T15:13:13.947Z,5.10
2017-09-05T15:15:40.171Z,7.47
2017-09-05T15:18:07.325Z,6.40
2017-09-05T15:20:40.810Z,7.50
2017-09-05T15:23:08.137Z,6.20
2017-09-05T15:25:34.347Z,8.50
2017-09-05T15:28:00.632Z,7.97
2017-09-05T15:30:26.926Z,7.43
2017-09-05T15:32:53.183Z,7.40
2017-09-05T15:35:25.513Z,5.73
2017-09-05T15:37:57.870Z,9.80
2017-09-05T15:40:30.197Z,9.77
2017-09-05T15:43:02.646Z,11.07
2017-09-05T15:45:34.835Z,6.80
2017-09-05T15:48:07.117Z,8.43
2017-09-05T15:50:39.313Z,9.47
2017-09-05T15:53:11.505Z,6.80
2017-09-05T15:55:43.870Z,7.10
2017-09-05T15:58:16.018Z,5.90
2017-09-05T16:00:48.503Z,8.03
2017-09-05T16:03:20.804Z,11.03
2017-09-05T16:05:53.213Z,7.87
2017-09-05T16:08:25.441Z,9.93
2017-09-05T16:10:57.928Z,12.30
2017-09-05T16:13:30.393Z,9.27
2017-09-05T16:16:02.761Z,7.00
2017-09-05T16:18:34.989Z,6.93
2017-09-05T16:21:07.373Z,8.40
2017-09-05T16:23:39.633Z,10.83
2017-09-05T16:26:11.868Z,13.50
2017-09-05T16:28:44.084Z,12.73
2017-09-05T16:31:16.525Z,8.93
2017-09-05T16:33:48.971Z,14.10
2017-09-05T16:36:21.306Z,11.20
2017-09-05T16:38:53.631Z,7.30
2017-09-05T16:41:25.866Z,11.10
2017-09-05T16:43:58.259Z,15.27
2017-09-05T16:46:30.746Z,10.83
2017-09-05T16:49:02.956Z,10.60
2017-09-05T16:51:35.354Z,17.60
2017-09-05T16:54:08.362Z,13.23
2017-09-05T16:56:40.612Z,14.27
2017-09-05T16:59:13.139Z,12.27
2017-09-05T17:01:45.594Z,24.17
2017-09-05T17:04:18.073Z,12.80
2017-09-05T17:06:50.564Z,16.93
2017-09-05T17:09:22.690Z,8.77
2017-09-05T17:11:54.999Z,17.90
2017-09-05T17:14:27.434Z,46.43
2017-09-05T17:16:59.958Z,77.57
2017-09-05T17:19:32.188Z,72.93
2017-09-05T17:22:04.446Z,26.40
2017-09-05T17:24:36.916Z,48.10
2017-09-05T17:27:09.113Z,32.00
2017-09-05T17:29:41.520Z,21.10
2017-09-05T17:32:13.784Z,26.97
2017-09-05T17:34:46.172Z,36.70
2017-09-05T17:37:18.478Z,30.27
2017-09-05T17:39:50.932Z,26.70
2017-09-05T17:42:23.363Z,40.33
2017-09-05T17:44:56.640Z,30.43
2017-09-05T17:47:29.275Z,31.33
2017-09-05T17:50:01.649Z,29.27
2017-09-05T17:52:35.370Z,32.17
2017-09-05T17:55:07.699Z,34.30
2017-09-05T17:57:39.958Z,41.40
2017-09-05T18:00:12.403Z,42.43
2017-09-05T18:02:44.822Z,62.73
2017-09-05T18:05:17.233Z,47.17
2017-09-05T18:07:50.137Z,54.73
2017-09-05T18:10:22.497Z,30.07
2017-09-05T18:12:54.869Z,39.53
2017-09-05T18:15:27.283Z,30.50
2017-09-05T18:18:00.104Z,28.60
2017-09-05T18:20:33.154Z,24.67
2017-09-05T18:23:05.448Z,33.80
2017-09-05T18:25:37.829Z,27.00
2017-09-05T18:28:10.292Z,64.63
2017-09-05T18:30:42.834Z,50.47
2017-09-05T18:33:15.239Z,43.30
2017-09-05T18:35:48.394Z,48.93
2017-09-05T18:38:20.769Z,32.73
2017-09-05T18:40:52.993Z,128.83
2017-09-05T18:43:25.319Z,116.77
2017-09-05T18:45:57.685Z,30.17
2017-09-05T18:48:30.150Z,104.43
2017-09-05T18:51:02.678Z,47.00
2017-09-05T18:53:38.780Z,20.23
2017-09-05T18:56:15.934Z,34.57
2017-09-05T18:58:48.317Z,33.50
2017-09-05T19:01:20.904Z,63.93
2017-09-05T19:03:53.234Z,32.20
2017-09-05T19:06:25.739Z,30.30
2017-09-05T19:08:58.437Z,26.30
2017-09-05T19:11:31.004Z,33.60
2017-09-05T19:14:03.300Z,50.77
2017-09-05T19:16:35.779Z,29.13
2017-09-05T19:19:08.136Z,26.67
2017-09-05T19:21:41.432Z,32.07
2017-09-05T19:24:13.723Z,34.23
2017-09-05T19:26:46.220Z,40.43
2017-09-05T19:29:18.545Z,32.43
2017-09-05T19:31:51.070Z,43.30
2017-09-05T19:34:23.754Z,37.13
2017-09-05T19:36:56.033Z,43.93
2017-09-05T19:39:28.326Z,46.00
2017-09-05T19:42:00.766Z,47.00
2017-09-05T19:44:33.114Z,53.37
2017-09-05T19:47:05.470Z,28.63
2017-09-05T19:49:38.363Z,25.10
2017-09-05T19:52:10.996Z,31.43
2017-09-05T19:54:43.321Z,33.20
2017-09-05T19:57:15.933Z,30.20
2017-09-05T19:59:48.267Z,35.33
2017-09-05T20:02:20.794Z,36.80
2017-09-05T20:04:53.529Z,55.60
2017-09-05T20:07:26.888Z,66.40
2017-09-05T20:09:59.356Z,84.80
2017-09-05T20:12:31.830Z,47.23
2017-09-05T20:15:04.291Z,64.03
2017-09-05T20:17:36.819Z,70.07
2017-09-05T20:20:09.894Z,48.93
2017-09-05T20:22:42.560Z,41.37
2017-09-05T20:25:14.893Z,36.30
2017-09-05T20:27:47.581Z,44.40
2017-09-05T20:30:22.136Z,41.03
2017-09-05T20:32:54.508Z,33.00
2017-09-05T20:35:26.734Z,34.90
2017-09-05T20:37:59.041Z,31.13
2017-09-05T20:40:31.527Z,33.27
2017-09-05T20:43:04.275Z,38.07
2017-09-05T20:45:36.641Z,43.70
2017-09-05T20:48:09.351Z,36.47
2017-09-05T20:50:41.766Z,32.43
2017-09-05T20:53:14.715Z,57.73
2017-09-05T20:55:46.946Z,31.03
2017-09-05T20:58:19.565Z,28.93
2017-09-05T21:00:51.885Z,32.03
2017-09-05T21:03:24.731Z,34.97
2017-09-05T21:05:56.991Z,24.77
2017-09-05T21:08:29.432Z,26.90
2017-09-05T21:11:01.586Z,33.33
2017-09-05T21:13:34.423Z,36.60
2017-09-05T21:16:06.751Z,39.83
2017-09-05T21:18:39.696Z,48.53
2017-09-05T21:21:12.370Z,50.90
2017-09-05T21:23:45.475Z,27.37
2017-09-05T21:26:17.978Z,34.33
2017-09-05T21:28:50.706Z,31.23
2017-09-05T21:31:22.983Z,37.87
2017-09-05T21:33:55.704Z,26.20
2017-09-05T21:36:28.240Z,50.10
2017-09-05T21:39:00.809Z,35.17
2017-09-05T21:41:33.258Z,30.80
2017-09-05T21:44:05.816Z,30.03
2017-09-05T21:46:38.074Z,28.63
2017-09-05T21:49:10.725Z,31.43
2017-09-05T21:51:42.975Z,34.40
2017-09-05T21:54:15.429Z,31.53
2017-09-05T21:56:47.764Z,33.03
2017-09-05T21:59:20.514Z,33.70
2017-09-05T22:01:52.713Z,36.50
2017-09-05T22:04:26.586Z,30.53
2017-09-05T22:06:58.886Z,31.70
2017-09-05T22:09:31.429Z,31.00
2017-09-05T22:12:03.729Z,31.70
2017-09-05T22:14:42.518Z,37.13
2017-09-05T22:17:18.613Z,32.47
2017-09-05T22:19:57.525Z,31.63
2017-09-05T22:22:43.039Z,37.17
2017-09-05T22:25:21.702Z,31.70
2017-09-05T22:28:00.072Z,28.73
2017-09-05T22:30:32.575Z,28.87
2017-09-05T22:33:04.780Z,32.93
2017-09-05T22:35:37.418Z,28.20
2017-09-05T22:38:09.628Z,31.30
2017-09-05T22:40:42.368Z,35.23
2017-09-05T22:43:14.754Z,35.73
2017-09-05T22:45:54.204Z,29.63
2017-09-05T22:48:26.514Z,31.27
2017-09-05T22:50:59.275Z,35.03
2017-09-05T22:53:31.566Z,33.13
2017-09-05T22:56:04.196Z,37.70
2017-09-05T22:58:36.548Z,34.67
2017-09-05T23:01:09.300Z,30.20
2017-09-05T23:03:41.665Z,31.10
2017-09-05T23:06:14.386Z,31.07
2017-09-05T23:08:46.942Z,32.10
2017-09-05T23:11:19.488Z,38.30
2017-09-05T23:13:51.924Z,39.60
2017-09-05T23:16:24.498Z,35.47
2017-09-05T23:18:56.766Z,39.67
2017-09-05T23:21:29.355Z,34.33
2017-09-05T23:24:01.668Z,31.23
2017-09-05T23:26:34.609Z,31.70
2017-09-05T23:29:06.819Z,30.10
2017-09-05T23:31:39.614Z,30.17
2017-09-05T23:34:11.820Z,39.80
2017-09-05T23:36:44.493Z,36.53
2017-09-05T23:39:16.609Z,31.10
2017-09-05T23:41:49.272Z,30.67
2017-09-05T23:44:21.726Z,28.93
2017-09-05T23:46:54.731Z,28.20
2017-09-05T23:49:27.017Z,31.00
2017-09-05T23:52:00.578Z,29.83
2017-09-05T23:54:32.725Z,31.87
2017-09-05T23:57:05.466Z,34.70
2017-09-05T23:59:37.907Z,35.17
